createdAt,value
2022-11-13T00:00:32.520Z,72.4
2022-11-13T00:01:49.658Z,72.2
2022-11-13T00:03:06.518Z,72.1
2022-11-13T00:04:23.537Z,72.3
2022-11-13T00:05:40.488Z,72.5
2022-11-13T00:06:59.240Z,72.6
2022-11-13T00:08:14.498Z,72.6
2022-11-13T00:09:31.499Z,72.8
2022-11-13T00:10:48.525Z,73.1
2022-11-13T00:12:05.502Z,73.5
2022-11-13T00:13:26.186Z,73.6
2022-11-13T00:14:39.534Z,73.7
2022-11-13T00:15:56.514Z,73.7
2022-11-13T00:17:13.531Z,73.7
2022-11-13T00:18:30.768Z,73.9
2022-11-13T00:19:47.521Z,73.9
2022-11-13T00:21:04.529Z,74.1
2022-11-13T00:22:21.599Z,74.3
2022-11-13T00:23:38.589Z,74.7
2022-11-13T00:24:55.514Z,75.1
2022-11-13T00:26:12.527Z,75.2
2022-11-13T00:27:29.543Z,75.1
2022-11-13T00:28:46.589Z,74.9
2022-11-13T00:30:04.010Z,74.7
2022-11-13T00:31:21.540Z,74.2
2022-11-13T00:32:38.667Z,74
2022-11-13T00:34:09.510Z,73.6
2022-11-13T00:35:12.557Z,73.1
2022-11-13T00:36:29.536Z,73
2022-11-13T00:37:46.532Z,73.3
2022-11-13T00:39:03.561Z,73.7
2022-11-13T00:40:20.532Z,73.9
2022-11-13T00:41:37.565Z,74.2
2022-11-13T00:42:54.571Z,74.3
2022-11-13T00:44:12.629Z,74.8
2022-11-13T00:45:29.551Z,75.1
2022-11-13T00:46:46.581Z,75.4
2022-11-13T00:48:03.710Z,75.6
2022-11-13T00:49:20.550Z,75.9
2022-11-13T00:50:37.570Z,76
2022-11-13T00:51:54.618Z,76.3
2022-11-13T00:53:16.887Z,76.5
2022-11-13T00:54:28.569Z,76.5
2022-11-13T00:55:45.585Z,76.4
2022-11-13T00:57:02.639Z,76.1
2022-11-13T00:58:19.567Z,76
2022-11-13T00:59:36.587Z,75.7
2022-11-13T01:00:53.564Z,75.3
2022-11-13T01:02:10.612Z,75.3
2022-11-13T01:03:27.752Z,75.7
2022-11-13T01:04:44.576Z,75.9
2022-11-13T01:06:01.649Z,76.2
2022-11-13T01:07:18.657Z,76.4
2022-11-13T01:08:35.572Z,76.5
2022-11-13T01:09:52.578Z,76.2
2022-11-13T01:11:09.596Z,75.7
2022-11-13T01:12:27.235Z,75.3
2022-11-13T01:13:44.580Z,75.4
2022-11-13T01:15:01.770Z,75.5
2022-11-13T01:16:18.631Z,75.5
2022-11-13T01:17:35.651Z,75.2
2022-11-13T01:18:52.795Z,74.8
2022-11-13T01:20:09.582Z,74.4
2022-11-13T01:21:26.608Z,74.1
2022-11-13T01:22:43.653Z,73.8
2022-11-13T01:24:00.636Z,74
2022-11-13T01:25:17.615Z,73.9
2022-11-13T01:26:34.622Z,74
2022-11-13T01:27:51.624Z,73.8
2022-11-13T01:29:08.623Z,73.7
2022-11-13T01:30:25.641Z,74
2022-11-13T01:31:42.645Z,74.1
2022-11-13T01:32:59.971Z,73.9
2022-11-13T01:34:16.880Z,73.6
2022-11-13T01:35:33.676Z,73.4
2022-11-13T01:36:50.618Z,73.3
2022-11-13T01:38:07.642Z,73.5
2022-11-13T01:39:24.620Z,73.5
2022-11-13T01:40:41.661Z,74
2022-11-13T01:41:58.725Z,74.6
2022-11-13T01:45:07.666Z,75.6
2022-11-13T01:46:24.659Z,76.6
2022-11-13T01:47:41.675Z,77.3
2022-11-13T01:48:58.650Z,77.5
2022-11-13T01:50:15.791Z,77.6
2022-11-13T01:51:32.664Z,77.7
2022-11-13T01:52:49.682Z,77.5
2022-11-13T01:54:06.667Z,77.2
2022-11-13T01:55:23.771Z,76.8
2022-11-13T01:56:40.688Z,76.5
2022-11-13T01:57:57.721Z,76.1
2022-11-13T01:59:14.669Z,75.9
2022-11-13T02:00:31.698Z,75.8
2022-11-13T02:01:48.717Z,76.2
2022-11-13T02:03:05.729Z,76.6
2022-11-13T02:04:22.697Z,76.8
2022-11-13T02:05:39.807Z,77
2022-11-13T02:06:56.795Z,77.4
2022-11-13T02:08:13.819Z,77.4
2022-11-13T02:09:30.734Z,76.9
2022-11-13T02:10:47.676Z,77
2022-11-13T02:12:04.696Z,76.9
2022-11-13T02:13:21.770Z,76.9
2022-11-13T02:14:38.741Z,76.7
2022-11-13T02:15:55.736Z,76.4
2022-11-13T02:17:12.765Z,76.6
2022-11-13T02:18:30.141Z,76.7
2022-11-13T02:19:46.699Z,76.9
2022-11-13T02:21:03.816Z,76.9
2022-11-13T02:22:20.721Z,77.2
2022-11-13T02:23:37.738Z,77.2
2022-11-13T02:24:55.060Z,77
2022-11-13T02:26:11.700Z,76.9
2022-11-13T02:27:28.723Z,76.6
2022-11-13T02:28:45.741Z,76.4
2022-11-13T02:30:02.882Z,76
2022-11-13T02:31:19.713Z,75.7
2022-11-13T02:32:36.731Z,75.7
2022-11-13T02:33:53.736Z,75.5
2022-11-13T02:35:10.715Z,75.4
2022-11-13T02:36:27.854Z,75.5
2022-11-13T02:37:44.749Z,75.5
2022-11-13T02:39:01.842Z,75.5
2022-11-13T02:40:18.760Z,75.2
2022-11-13T02:41:35.933Z,75.2
2022-11-13T02:42:52.765Z,75.6
2022-11-13T02:44:09.873Z,75.9
2022-11-13T02:45:26.758Z,76.3
2022-11-13T02:46:43.862Z,76.4
2022-11-13T02:48:00.738Z,76.2
2022-11-13T02:49:17.732Z,75.8
2022-11-13T02:50:34.728Z,75.2
2022-11-13T02:51:51.880Z,74.9
2022-11-13T02:53:08.770Z,74.2
2022-11-13T02:54:25.766Z,74
2022-11-13T02:55:42.762Z,73.8
2022-11-13T02:56:59.764Z,73.5
2022-11-13T02:58:16.774Z,73.6
2022-11-13T02:59:33.743Z,73.4
2022-11-13T03:00:50.756Z,73.4
2022-11-13T03:02:08.098Z,73.8
2022-11-13T03:03:48.036Z,74.1
2022-11-13T03:05:10.075Z,74.3
2022-11-13T03:05:58.772Z,74.8
2022-11-13T03:07:15.910Z,75
2022-11-13T03:08:33.532Z,75.1
2022-11-13T03:09:49.798Z,75
2022-11-13T03:11:06.776Z,74.6
2022-11-13T03:12:23.775Z,74.2
2022-11-13T03:13:40.793Z,74.1
2022-11-13T03:14:57.809Z,73.8
2022-11-13T03:16:14.793Z,73.9
2022-11-13T03:17:31.785Z,73.6
2022-11-13T03:18:48.835Z,73.5
2022-11-13T03:20:05.849Z,73.6
2022-11-13T03:21:22.760Z,73.3
2022-11-13T03:22:39.884Z,73.6
2022-11-13T03:23:56.777Z,73.6
2022-11-13T03:25:13.813Z,73.5
2022-11-13T03:26:30.775Z,73.3
2022-11-13T03:27:47.808Z,73.3
2022-11-13T03:29:04.800Z,74.1
2022-11-13T03:30:21.823Z,74.8
2022-11-13T03:31:38.807Z,75.2
2022-11-13T03:32:55.791Z,75.5
2022-11-13T03:34:12.869Z,75.5
2022-11-13T03:35:31.884Z,75.4
2022-11-13T03:36:46.862Z,75.5
2022-11-13T03:38:03.933Z,75.4
2022-11-13T03:39:20.814Z,75.3
2022-11-13T03:40:37.843Z,75
2022-11-13T03:41:54.798Z,74.6
2022-11-13T03:43:11.823Z,74.3
2022-11-13T03:44:28.852Z,73.9
2022-11-13T03:45:45.859Z,73
2022-11-13T03:47:02.835Z,72.3
2022-11-13T03:48:19.818Z,72.4
2022-11-13T03:49:36.852Z,72.5
2022-11-13T03:50:53.875Z,73
2022-11-13T03:52:10.858Z,73.6
2022-11-13T03:53:27.999Z,74.2
2022-11-13T03:54:44.844Z,74.5
2022-11-13T03:56:01.901Z,74.9
2022-11-13T03:57:18.816Z,75.2
2022-11-13T03:58:39.918Z,74.9
2022-11-13T03:59:52.875Z,74.5
2022-11-13T04:01:09.839Z,74.2
2022-11-13T04:02:26.835Z,74.1
2022-11-13T04:03:43.941Z,74.3
2022-11-13T04:05:00.889Z,74.1
2022-11-13T04:06:17.854Z,74.2
2022-11-13T04:07:34.854Z,74.4
2022-11-13T04:08:51.919Z,74.5
2022-11-13T04:10:08.889Z,74.3
2022-11-13T04:11:25.851Z,74.1
2022-11-13T04:12:42.882Z,73.7
2022-11-13T04:13:59.873Z,73.3
2022-11-13T04:15:16.917Z,73
2022-11-13T04:16:33.888Z,72.8
2022-11-13T04:17:50.850Z,72.5
2022-11-13T04:19:07.912Z,72.4
2022-11-13T04:20:24.901Z,72.5
2022-11-13T04:21:41.883Z,72.6
2022-11-13T04:22:58.904Z,72.5
2022-11-13T04:24:16.006Z,72.4
2022-11-13T04:25:32.897Z,72.3
2022-11-13T04:26:49.866Z,72
2022-11-13T04:28:06.959Z,71.6
2022-11-13T04:29:23.908Z,71.7
2022-11-13T04:30:40.960Z,71.8
2022-11-13T04:31:57.883Z,71.9
2022-11-13T04:33:14.888Z,72.2
2022-11-13T04:34:31.918Z,72.6
2022-11-13T04:35:48.897Z,73
2022-11-13T04:37:05.906Z,73.3
2022-11-13T04:38:22.900Z,73.5
2022-11-13T04:39:40.035Z,73.5
2022-11-13T04:40:56.885Z,73.9
2022-11-13T04:42:13.900Z,74
2022-11-13T04:43:30.890Z,74.3
2022-11-13T04:44:47.975Z,74.6
2022-11-13T04:46:04.931Z,75
2022-11-13T04:47:21.928Z,75.6
2022-11-13T04:48:38.904Z,75.8
2022-11-13T04:49:55.917Z,76.1
2022-11-13T04:51:12.924Z,76.3
2022-11-13T04:52:29.924Z,76.2
2022-11-13T04:53:46.898Z,75.8
2022-11-13T04:55:04.142Z,75.2
2022-11-13T04:56:20.945Z,74.7
2022-11-13T04:57:37.920Z,74.7
2022-11-13T04:58:54.941Z,74.8
2022-11-13T05:00:11.957Z,75.3
2022-11-13T05:01:29.012Z,75.5
2022-11-13T05:02:45.979Z,75.4
2022-11-13T05:04:02.940Z,75.5
2022-11-13T05:05:19.944Z,75.6
2022-11-13T05:06:36.999Z,75.9
2022-11-13T05:07:53.991Z,76
2022-11-13T05:09:10.932Z,75.8
2022-11-13T05:10:28.041Z,75.3
2022-11-13T05:11:45.002Z,75.1
2022-11-13T05:13:02.084Z,75
2022-11-13T05:14:19.002Z,74.7
2022-11-13T05:15:35.947Z,74.3
2022-11-13T05:16:52.953Z,74.1
2022-11-13T05:18:09.964Z,74.5
2022-11-13T05:19:26.946Z,75.1
2022-11-13T05:20:43.950Z,75.7
2022-11-13T05:22:01.131Z,75.8
2022-11-13T05:23:18.026Z,75.7
2022-11-13T05:24:34.955Z,75.7
2022-11-13T05:25:52.072Z,75.6
2022-11-13T05:27:12.831Z,75.3
2022-11-13T05:28:26.318Z,75.4
2022-11-13T05:29:43.005Z,75.6
2022-11-13T05:30:59.968Z,75.6
2022-11-13T05:32:16.952Z,75.7
2022-11-13T05:33:34.071Z,75.9
2022-11-13T05:34:50.972Z,75.8
2022-11-13T05:36:07.982Z,75.4
2022-11-13T05:37:24.971Z,75.4
2022-11-13T05:38:42.034Z,75.5
2022-11-13T05:39:59.025Z,75.4
2022-11-13T05:41:16.157Z,75.3
2022-11-13T05:42:32.980Z,75.4
2022-11-13T05:43:52.661Z,74.6
2022-11-13T05:45:07.047Z,74.6
2022-11-13T05:46:23.974Z,74.7
2022-11-13T05:47:40.991Z,74.9
2022-11-13T05:48:57.993Z,75
2022-11-13T05:50:15.046Z,75.1
2022-11-13T05:51:32.073Z,75.2
2022-11-13T05:52:49.032Z,74.9
2022-11-13T05:54:05.997Z,74.7
2022-11-13T05:55:23.551Z,74.6
2022-11-13T05:56:40.101Z,74.5
2022-11-13T05:57:57.029Z,74.3
2022-11-13T05:59:14.185Z,74.2
2022-11-13T06:00:31.065Z,73.9
2022-11-13T06:01:48.147Z,73.9
2022-11-13T06:03:04.995Z,74.2
2022-11-13T06:04:22.003Z,74.2
2022-11-13T06:05:39.132Z,74.2
2022-11-13T06:06:56.087Z,74
2022-11-13T06:08:13.027Z,73.6
2022-11-13T06:09:30.020Z,73.5
2022-11-13T06:10:47.017Z,73.8
2022-11-13T06:12:04.226Z,74.3
2022-11-13T06:13:21.030Z,74.6
2022-11-13T06:14:38.051Z,74.9
2022-11-13T06:15:55.053Z,75.1
2022-11-13T06:17:12.113Z,75
2022-11-13T06:18:29.742Z,74.6
2022-11-13T06:19:46.016Z,74.6
2022-11-13T06:21:03.072Z,74.6
2022-11-13T06:22:20.068Z,74.5
2022-11-13T06:23:37.069Z,74.4
2022-11-13T06:24:54.039Z,74.4
2022-11-13T06:26:11.021Z,74
2022-11-13T06:27:28.158Z,73.9
2022-11-13T06:28:45.473Z,73.8
2022-11-13T06:30:03.349Z,74
2022-11-13T06:31:20.042Z,74.5
2022-11-13T06:32:37.071Z,75.1
2022-11-13T06:33:54.061Z,75.6
2022-11-13T06:35:11.103Z,76
2022-11-13T06:36:28.072Z,76.3
2022-11-13T06:37:45.059Z,76.4
2022-11-13T06:39:02.121Z,76
2022-11-13T06:40:19.127Z,75.8
2022-11-13T06:41:36.070Z,75.8
2022-11-13T06:42:53.765Z,76.1
2022-11-13T06:44:11.037Z,76.4
2022-11-13T06:45:28.097Z,76.6
2022-11-13T06:46:45.052Z,76.9
2022-11-13T06:48:02.127Z,77.1
2022-11-13T06:49:19.073Z,77.1
2022-11-13T06:50:36.076Z,77.1
2022-11-13T06:51:53.108Z,77.4
2022-11-13T06:53:10.082Z,77.9
2022-11-13T06:54:27.827Z,78.3
2022-11-13T06:55:45.066Z,78.6
2022-11-13T06:57:02.614Z,78.9
2022-11-13T06:58:20.319Z,79.1
2022-11-13T06:59:37.545Z,79.1
2022-11-13T07:00:54.207Z,79.2
2022-11-13T07:02:11.148Z,79.5
2022-11-13T07:03:28.165Z,79.7
2022-11-13T07:04:45.083Z,79.7
2022-11-13T07:06:02.827Z,79.5
2022-11-13T07:07:20.303Z,79.3
2022-11-13T07:08:37.352Z,79.5
2022-11-13T07:09:54.192Z,79.5
2022-11-13T07:11:12.865Z,79.9
2022-11-13T07:12:30.336Z,80.2
2022-11-13T07:13:47.218Z,80.9
2022-11-13T07:15:04.788Z,81.2
2022-11-13T07:16:22.291Z,81.4
2022-11-13T07:17:39.252Z,81.6
2022-11-13T07:18:56.132Z,81.6
2022-11-13T07:20:13.153Z,81.8
2022-11-13T07:21:30.377Z,81.6
2022-11-13T07:22:47.182Z,81.8
2022-11-13T07:24:04.149Z,82.3
2022-11-13T07:25:21.630Z,82.6
2022-11-13T07:26:39.127Z,82.9
2022-11-13T07:27:56.680Z,82.7
2022-11-13T07:29:15.225Z,82.6
2022-11-13T07:30:32.173Z,82.2
2022-11-13T07:31:49.144Z,82.1
2022-11-13T07:33:06.390Z,82
2022-11-13T07:34:23.793Z,81.8
2022-11-13T07:35:41.876Z,81.5
2022-11-13T07:36:59.334Z,81.3
2022-11-13T07:38:16.276Z,80.7
2022-11-13T07:39:33.220Z,80.6
2022-11-13T07:40:50.699Z,80.5
2022-11-13T07:42:08.175Z,80.8
2022-11-13T07:43:26.321Z,81
2022-11-13T07:44:58.619Z,81
2022-11-13T07:46:00.183Z,81
2022-11-13T07:47:17.153Z,81.1
2022-11-13T07:48:34.158Z,80.9
2022-11-13T07:49:51.161Z,80.2
2022-11-13T07:51:09.431Z,79.5
2022-11-13T07:52:26.148Z,79
2022-11-13T07:53:43.658Z,78.5
2022-11-13T07:55:00.182Z,78.8
2022-11-13T07:56:22.836Z,79.1
2022-11-13T07:57:35.159Z,79.3
2022-11-13T07:58:52.475Z,79.4
2022-11-13T08:00:10.478Z,79.5
2022-11-13T08:01:27.323Z,79.1
2022-11-13T08:02:44.370Z,78.8
2022-11-13T08:04:01.375Z,78.8
2022-11-13T08:05:18.185Z,78.5
2022-11-13T08:06:35.212Z,78.3
2022-11-13T08:07:52.212Z,78
2022-11-13T08:09:09.181Z,77.8
2022-11-13T08:10:26.180Z,77.7
2022-11-13T08:11:43.298Z,77.2
2022-11-13T08:13:00.177Z,76.8
2022-11-13T08:14:17.195Z,76.5
2022-11-13T08:15:34.303Z,76.4
2022-11-13T08:16:51.250Z,76.2
2022-11-13T08:18:08.185Z,76.7
2022-11-13T08:19:25.231Z,77
2022-11-13T08:20:42.225Z,77.2
2022-11-13T08:21:59.223Z,77.3
2022-11-13T08:23:16.187Z,77.1
2022-11-13T08:24:33.193Z,76.8
2022-11-13T08:25:50.223Z,77
2022-11-13T08:27:07.239Z,77.3
2022-11-13T08:28:24.603Z,77.4
2022-11-13T08:29:41.305Z,77.4
2022-11-13T08:30:59.318Z,76.8
2022-11-13T08:32:16.746Z,76.6
2022-11-13T08:33:33.208Z,76.7
2022-11-13T08:34:50.302Z,76.4
2022-11-13T08:36:07.252Z,76.7
2022-11-13T08:37:24.447Z,76.6
2022-11-13T08:38:41.297Z,76.9
2022-11-13T08:39:58.207Z,76.7
2022-11-13T08:41:15.244Z,76.8
2022-11-13T08:42:32.245Z,76.8
2022-11-13T08:43:49.277Z,76.7
2022-11-13T08:45:06.347Z,76.7
2022-11-13T08:46:23.393Z,76.7
2022-11-13T08:47:40.309Z,76.7
2022-11-13T08:48:57.308Z,76.4
2022-11-13T08:50:14.255Z,75.6
2022-11-13T08:51:31.285Z,75.2
2022-11-13T08:52:48.259Z,74.7
2022-11-13T08:54:05.567Z,74.4
2022-11-13T08:55:22.237Z,74
2022-11-13T08:56:39.245Z,74.3
2022-11-13T08:57:56.318Z,74.7
2022-11-13T08:59:13.420Z,75.2
2022-11-13T09:00:30.284Z,76.2
2022-11-13T09:01:47.459Z,76.4
2022-11-13T09:03:04.270Z,76.7
2022-11-13T09:04:23.354Z,77.1
2022-11-13T09:05:42.614Z,76.9
2022-11-13T09:06:59.292Z,76.9
2022-11-13T09:08:16.351Z,76.6
2022-11-13T09:09:33.281Z,76
2022-11-13T09:10:50.352Z,75.6
2022-11-13T09:12:07.272Z,75.7
2022-11-13T09:13:24.408Z,75.7
2022-11-13T09:14:41.304Z,75.9
2022-11-13T09:15:58.694Z,75.8
2022-11-13T09:17:16.390Z,75.5
2022-11-13T09:18:33.320Z,75.7
2022-11-13T09:19:50.259Z,76
2022-11-13T09:21:07.325Z,76.2
2022-11-13T09:22:24.264Z,75.7
2022-11-13T09:23:41.336Z,76
2022-11-13T09:24:58.450Z,75.9
2022-11-13T09:26:16.333Z,75.6
2022-11-13T09:27:33.334Z,76.2
2022-11-13T09:28:50.549Z,76.3
2022-11-13T09:30:07.618Z,76.6
2022-11-13T09:31:24.424Z,76.4
2022-11-13T09:32:41.477Z,76.3
2022-11-13T09:33:58.299Z,75.9
2022-11-13T09:35:15.330Z,75.5
2022-11-13T09:36:32.347Z,75.4
2022-11-13T09:37:49.295Z,75.4
2022-11-13T09:39:06.587Z,75.2
2022-11-13T09:40:23.292Z,74.7
2022-11-13T09:41:41.642Z,73.8
2022-11-13T09:42:58.679Z,73.4
2022-11-13T09:44:16.345Z,73.4
2022-11-13T09:45:33.322Z,73.1
2022-11-13T09:46:50.637Z,73.3
2022-11-13T09:48:07.449Z,72.8
2022-11-13T09:49:24.318Z,72.5
2022-11-13T09:50:41.356Z,72.4
2022-11-13T09:51:59.785Z,73
2022-11-13T09:53:15.302Z,73.4
2022-11-13T09:54:32.340Z,73.7
2022-11-13T09:55:49.334Z,74
2022-11-13T09:57:06.375Z,74
2022-11-13T09:58:23.336Z,74.3
2022-11-13T09:59:40.700Z,74
2022-11-13T10:00:59.088Z,73.7
2022-11-13T10:02:16.853Z,73.4
2022-11-13T10:04:04.835Z,73.1
2022-11-13T10:04:53.360Z,72.6
2022-11-13T10:06:11.293Z,72.7
2022-11-13T10:07:30.214Z,72.7
2022-11-13T10:08:48.463Z,72.5
2022-11-13T10:10:06.732Z,72.7
2022-11-13T10:11:24.006Z,72.9
2022-11-13T10:12:42.629Z,73.5
2022-11-13T10:14:02.954Z,73.7
2022-11-13T10:15:21.877Z,74
2022-11-13T10:16:40.804Z,74.1
2022-11-13T10:17:58.937Z,73.5
2022-11-13T10:19:17.724Z,72.8
2022-11-13T10:20:35.028Z,72.2
2022-11-13T10:22:02.812Z,71.8
2022-11-13T10:23:11.959Z,71.7
2022-11-13T10:24:33.462Z,72
2022-11-13T10:25:51.978Z,72
2022-11-13T10:27:10.679Z,72.2
2022-11-13T10:28:49.270Z,72.5
2022-11-13T10:29:49.086Z,73.1
2022-11-13T10:31:05.586Z,73.5
2022-11-13T10:32:23.749Z,73.5
2022-11-13T10:33:42.839Z,73.7
2022-11-13T10:35:01.340Z,74
2022-11-13T10:36:19.023Z,73.6
2022-11-13T10:37:40.177Z,73.7
2022-11-13T10:38:59.245Z,73.9
2022-11-13T10:40:18.226Z,73.8
2022-11-13T10:41:37.271Z,73.5
2022-11-13T10:42:55.788Z,73.3
2022-11-13T10:44:17.199Z,73.2
2022-11-13T10:45:36.220Z,72.8
2022-11-13T10:46:54.513Z,72.1
2022-11-13T10:48:13.085Z,71.5
2022-11-13T10:49:31.355Z,71.3
2022-11-13T10:50:49.958Z,71.3
2022-11-13T10:52:11.150Z,71.9
2022-11-13T10:53:26.732Z,72.3
2022-11-13T10:54:44.157Z,72.7
2022-11-13T10:56:02.726Z,73
2022-11-13T10:57:20.237Z,72.8
2022-11-13T11:00:01.028Z,72.5
2022-11-13T11:01:19.930Z,72
2022-11-13T11:02:40.751Z,71.6
2022-11-13T11:03:58.553Z,71.2
2022-11-13T11:05:17.860Z,71
2022-11-13T11:07:56.862Z,72.7
2022-11-13T11:09:15.956Z,73.2
2022-11-13T11:10:38.034Z,73.5
2022-11-13T11:11:56.964Z,72.9
2022-11-13T11:13:15.845Z,72.3
2022-11-13T11:14:34.419Z,71.7
2022-11-13T11:15:52.170Z,71.3
2022-11-13T11:17:10.706Z,71.3
2022-11-13T11:18:29.657Z,71.1
2022-11-13T11:19:48.429Z,71.2
2022-11-13T11:22:27.963Z,71.9
2022-11-13T11:23:53.222Z,72.6
2022-11-13T11:25:08.461Z,72.6
2022-11-13T11:26:27.132Z,72.9
2022-11-13T11:27:45.509Z,73.1
2022-11-13T11:29:03.924Z,73.3
2022-11-13T11:30:22.027Z,74
2022-11-13T11:31:40.846Z,74.2
2022-11-13T11:32:58.515Z,74.6
2022-11-13T11:34:16.763Z,75.1
2022-11-13T11:35:36.156Z,75.2
2022-11-13T11:36:56.849Z,75.1
2022-11-13T11:38:15.615Z,75.5
2022-11-13T11:39:33.631Z,75.9
2022-11-13T11:40:51.418Z,76.3
2022-11-13T11:42:10.100Z,75.6
2022-11-13T11:43:28.752Z,75.2
2022-11-13T11:44:47.726Z,75
2022-11-13T11:46:05.866Z,74.8
2022-11-13T11:47:24.631Z,74.8
2022-11-13T11:48:42.902Z,75.3
2022-11-13T11:50:02.936Z,75.7
2022-11-13T11:51:21.024Z,76.3
2022-11-13T11:52:39.827Z,75.6
2022-11-13T11:53:57.507Z,74.8
2022-11-13T11:55:16.744Z,74.3
2022-11-13T11:57:56.443Z,72.9
2022-11-13T11:59:14.186Z,73
2022-11-13T12:00:41.649Z,72.6
2022-11-13T12:03:19.562Z,72.2
2022-11-13T12:04:37.900Z,72.1
2022-11-13T12:05:57.769Z,72.6
2022-11-13T12:08:36.394Z,72.7
2022-11-13T12:09:57.401Z,72.5
2022-11-13T12:11:18.745Z,72.3
2022-11-13T12:12:37.123Z,72.1
2022-11-13T12:13:55.646Z,72.1
2022-11-13T12:15:14.869Z,72.1
2022-11-13T12:16:32.257Z,72
2022-11-13T12:17:51.175Z,71.9
2022-11-13T12:19:10.196Z,72.2
2022-11-13T12:20:28.392Z,72.8
2022-11-13T12:21:47.038Z,73.3
2022-11-13T12:23:05.986Z,73.3
2022-11-13T12:24:24.380Z,73
2022-11-13T12:25:42.870Z,73.3
2022-11-13T12:27:00.452Z,73.3
2022-11-13T12:29:38.118Z,74.3
2022-11-13T12:30:56.890Z,74.8
2022-11-13T12:32:15.790Z,75.3
2022-11-13T12:33:33.690Z,75.6
2022-11-13T12:34:51.883Z,75.6
2022-11-13T12:36:09.930Z,75
2022-11-13T12:37:27.338Z,74.9
2022-11-13T12:38:45.523Z,74.7
2022-11-13T12:40:03.164Z,74.3
2022-11-13T12:41:21.443Z,74.4
2022-11-13T12:42:40.207Z,74.6
2022-11-13T12:43:58.814Z,74.8
2022-11-13T12:45:19.848Z,75.3
2022-11-13T12:46:37.985Z,75.8
2022-11-13T12:47:55.285Z,76.2
2022-11-13T12:49:16.214Z,76.4
2022-11-13T12:50:34.894Z,76.7
2022-11-13T12:51:54.204Z,77.1
2022-11-13T12:53:12.571Z,77.4
2022-11-13T12:54:30.759Z,77.4
2022-11-13T12:55:47.839Z,77
2022-11-13T12:57:05.546Z,76.6
2022-11-13T12:58:22.922Z,76.3
2022-11-13T12:59:42.761Z,76
2022-11-13T13:01:00.944Z,75.9
2022-11-13T13:02:18.041Z,76.4
2022-11-13T13:03:40.066Z,76.8
2022-11-13T13:04:59.247Z,77
2022-11-13T13:06:17.302Z,76.8
2022-11-13T13:07:38.723Z,76.8
2022-11-13T13:09:02.110Z,77.1
2022-11-13T13:10:19.658Z,77.3
2022-11-13T13:11:36.756Z,77.1
2022-11-13T13:12:53.777Z,76.7
2022-11-13T13:14:10.603Z,75.9
2022-11-13T13:15:27.713Z,75.1
2022-11-13T13:16:44.601Z,74.3
2022-11-13T13:18:01.647Z,73.6
2022-11-13T13:19:18.885Z,73.1
2022-11-13T13:20:35.685Z,72.8
2022-11-13T13:21:52.813Z,72.7
2022-11-13T13:23:09.617Z,72.8
2022-11-13T13:24:26.645Z,73.1
2022-11-13T13:25:43.684Z,73.5
2022-11-13T13:27:00.643Z,73.8
2022-11-13T13:28:17.868Z,73.8
2022-11-13T13:29:34.662Z,73.6
2022-11-13T13:30:51.649Z,73.1
2022-11-13T13:32:11.677Z,72.6
2022-11-13T13:33:25.672Z,72
2022-11-13T13:34:42.768Z,71.7
2022-11-13T13:35:59.688Z,71.2
2022-11-13T13:37:16.630Z,70.8
2022-11-13T13:38:33.775Z,70.7
2022-11-13T13:39:50.654Z,70.6
2022-11-13T13:41:07.701Z,71
2022-11-13T13:42:24.638Z,71.5
2022-11-13T13:43:41.774Z,71.8
2022-11-13T13:44:58.657Z,72
2022-11-13T13:46:15.658Z,72.3
2022-11-13T13:47:32.693Z,72.9
2022-11-13T13:48:49.644Z,73.1
2022-11-13T13:50:06.956Z,73.2
2022-11-13T13:51:23.708Z,72.5
2022-11-13T13:52:40.701Z,71.8
2022-11-13T13:53:57.836Z,70.9
2022-11-13T13:55:14.685Z,70.6
2022-11-13T13:56:31.732Z,70.5
2022-11-13T13:57:48.637Z,70.7
2022-11-13T13:59:05.913Z,70.8
2022-11-13T14:00:22.712Z,70.6
2022-11-13T14:01:39.780Z,70.2
2022-11-13T14:02:56.751Z,70
2022-11-13T14:04:13.840Z,70.7
2022-11-13T14:05:30.690Z,71.2
2022-11-13T14:06:47.775Z,71.6
2022-11-13T14:08:04.733Z,71.8
2022-11-13T14:09:21.692Z,72.1
2022-11-13T14:10:38.736Z,72.2
2022-11-13T14:11:55.693Z,72.2
2022-11-13T14:13:12.735Z,72
2022-11-13T14:14:30.259Z,72.1
2022-11-13T14:15:47.784Z,72.1
2022-11-13T14:17:05.603Z,72
2022-11-13T14:18:22.729Z,71.5
2022-11-13T14:19:39.724Z,71.1
2022-11-13T14:20:56.706Z,71
2022-11-13T14:22:13.709Z,70.9
2022-11-13T14:23:30.725Z,70.9
2022-11-13T14:24:47.771Z,70.7
2022-11-13T14:26:04.769Z,70.6
2022-11-13T14:27:21.703Z,70.6
2022-11-13T14:28:38.705Z,70.4
2022-11-13T14:29:55.829Z,70
2022-11-13T14:31:12.865Z,69.8
2022-11-13T14:32:29.703Z,69.8
2022-11-13T14:33:46.753Z,69.9
2022-11-13T14:35:03.817Z,70.1
2022-11-13T14:36:20.775Z,70.9
2022-11-13T14:37:37.756Z,71.8
2022-11-13T14:38:54.757Z,72.7
2022-11-13T14:40:11.807Z,73.4
2022-11-13T14:41:28.771Z,74.4
2022-11-13T14:42:45.747Z,75
2022-11-13T14:44:02.895Z,75.3
2022-11-13T14:45:19.867Z,75.5
2022-11-13T14:46:36.756Z,75.1
2022-11-13T14:47:53.733Z,74.8
2022-11-13T14:49:10.764Z,74.7
2022-11-13T14:50:27.758Z,74.2
2022-11-13T14:51:44.761Z,73.8
2022-11-13T14:53:01.763Z,73.7
2022-11-13T14:54:18.896Z,73.6
2022-11-13T14:55:35.787Z,73.6
2022-11-13T14:56:52.904Z,73.3
2022-11-13T14:58:09.761Z,73
2022-11-13T14:59:26.780Z,73
2022-11-13T15:00:43.894Z,73
2022-11-13T15:02:00.819Z,73.1
2022-11-13T15:03:17.798Z,73.6
2022-11-13T15:04:39.343Z,73.9
2022-11-13T15:05:51.775Z,74
2022-11-13T15:07:08.842Z,74.1
2022-11-13T15:08:25.776Z,74.5
2022-11-13T15:09:42.889Z,74.8
2022-11-13T15:10:59.784Z,74.9
2022-11-13T15:12:17.037Z,75.1
2022-11-13T15:13:33.845Z,75.4
2022-11-13T15:14:51.102Z,75.5
2022-11-13T15:16:08.939Z,75.5
2022-11-13T15:17:25.792Z,75.4
2022-11-13T15:18:42.849Z,75.5
2022-11-13T15:19:59.837Z,75.6
2022-11-13T15:21:16.813Z,75.6
2022-11-13T15:22:33.811Z,75.6
2022-11-13T15:23:50.832Z,75.7
2022-11-13T15:25:07.868Z,75.9
2022-11-13T15:26:24.785Z,76
2022-11-13T15:27:43.245Z,76.2
2022-11-13T15:28:58.782Z,76.3
2022-11-13T15:30:15.831Z,76.4
2022-11-13T15:31:32.918Z,76.3
2022-11-13T15:32:49.801Z,76
2022-11-13T15:34:06.868Z,75.5
2022-11-13T15:35:23.989Z,75.1
2022-11-13T15:36:40.810Z,74.8
2022-11-13T15:37:57.802Z,74.5
2022-11-13T15:39:22.897Z,74.4
2022-11-13T15:40:31.820Z,74.2
2022-11-13T15:41:48.894Z,74.5
2022-11-13T15:43:05.839Z,74.8
2022-11-13T15:44:22.861Z,75.2
2022-11-13T15:45:43.925Z,75.2
2022-11-13T15:46:56.932Z,75.5
2022-11-13T15:48:13.856Z,76
2022-11-13T15:49:30.856Z,76.3
2022-11-13T15:50:47.858Z,76.1
2022-11-13T15:52:04.889Z,75.9
2022-11-13T15:53:21.831Z,75.5
2022-11-13T15:54:38.844Z,75
2022-11-13T15:55:55.862Z,75
2022-11-13T15:57:12.977Z,75.2
2022-11-13T15:58:33.412Z,75.4
2022-11-13T15:59:46.820Z,75.6
2022-11-13T16:01:03.981Z,75.9
2022-11-13T16:02:20.947Z,75.9
2022-11-13T16:03:37.856Z,75.9
2022-11-13T16:04:56.830Z,75.8
2022-11-13T16:06:11.964Z,75.7
2022-11-13T16:07:28.930Z,75.8
2022-11-13T16:08:45.868Z,75.5
2022-11-13T16:10:02.939Z,75.2
2022-11-13T16:11:20.017Z,74.9
2022-11-13T16:12:36.866Z,74.6
2022-11-13T16:13:53.903Z,74.2
2022-11-13T16:15:10.882Z,73.8
2022-11-13T16:16:27.880Z,73.6
2022-11-13T16:17:45.041Z,73.4
2022-11-13T16:19:01.866Z,73.3
2022-11-13T16:20:18.876Z,73.2
2022-11-13T16:21:36.081Z,73.4
2022-11-13T16:22:53.906Z,73.7
2022-11-13T16:24:10.965Z,74.1
2022-11-13T16:25:27.980Z,74.5
2022-11-13T16:26:44.883Z,75
2022-11-13T16:28:01.882Z,75.6
2022-11-13T16:29:19.100Z,76.2
2022-11-13T16:30:35.955Z,76.8
2022-11-13T16:31:52.923Z,77.3
2022-11-13T16:33:10.003Z,77.5
2022-11-13T16:34:26.912Z,77.6
2022-11-13T16:35:43.928Z,77.2
2022-11-13T16:37:00.945Z,76.6
2022-11-13T16:38:17.893Z,76
2022-11-13T16:39:34.900Z,75.3
2022-11-13T16:40:51.936Z,75
2022-11-13T16:42:08.893Z,74.5
2022-11-13T16:43:26.218Z,74.2
2022-11-13T16:44:42.963Z,73.9
2022-11-13T16:46:00.000Z,73.6
2022-11-13T16:47:16.899Z,73.3
2022-11-13T16:48:34.017Z,73
2022-11-13T16:49:50.930Z,72.9
2022-11-13T16:51:07.910Z,72.8
2022-11-13T16:52:24.948Z,72.7
2022-11-13T16:53:42.014Z,72.4
2022-11-13T16:55:02.282Z,72.2
2022-11-13T16:56:15.917Z,72
2022-11-13T16:57:32.925Z,71.9
2022-11-13T16:58:50.056Z,71.9
2022-11-13T17:00:06.991Z,72.3
2022-11-13T17:01:24.112Z,72.6
2022-11-13T17:02:41.175Z,72.7
2022-11-13T17:03:58.102Z,72.5
2022-11-13T17:05:14.943Z,72.3
2022-11-13T17:06:31.994Z,72.2
2022-11-13T17:07:48.959Z,72.3
2022-11-13T17:09:05.972Z,72.8
2022-11-13T17:10:32.150Z,73.4
2022-11-13T17:11:39.968Z,74.3
2022-11-13T17:12:56.969Z,75
2022-11-13T17:14:13.986Z,75.5
2022-11-13T17:15:31.054Z,75.5
2022-11-13T17:16:48.080Z,75.3
2022-11-13T17:18:04.949Z,75.1
2022-11-13T17:19:22.148Z,74.7
2022-11-13T17:20:38.969Z,74.3
2022-11-13T17:21:56.017Z,73.8
2022-11-13T17:23:12.950Z,73.4
2022-11-13T17:24:30.114Z,73.2
2022-11-13T17:25:46.963Z,73
2022-11-13T17:27:04.055Z,72.7
2022-11-13T17:28:20.996Z,72.6